createdAt,value
2019-03-13T00:00:01.175Z,0.80
2019-03-13T00:02:32.412Z,0.83
2019-03-13T00:04:59.690Z,0.83
2019-03-13T00:07:27.289Z,0.77
2019-03-13T00:09:54.899Z,1.17
2019-03-13T00:12:22.012Z,0.83
2019-03-13T00:14:49.959Z,0.63
2019-03-13T00:17:17.534Z,0.83
2019-03-13T00:19:44.828Z,0.73
2019-03-13T00:22:12.021Z,1.13
2019-03-13T00:24:39.235Z,1.23
2019-03-13T00:27:07.083Z,0.87
2019-03-13T00:29:35.041Z,1.43
2019-03-13T00:32:03.697Z,1.40
2019-03-13T00:34:30.882Z,1.10
2019-03-13T00:36:58.283Z,0.80
2019-03-13T00:39:25.242Z,0.70
2019-03-13T00:41:52.381Z,0.67
2019-03-13T00:44:19.957Z,0.60
2019-03-13T00:46:47.256Z,1.03
2019-03-13T00:49:14.547Z,0.50
2019-03-13T00:51:42.102Z,0.73
2019-03-13T00:54:09.265Z,1.10
2019-03-13T00:56:36.810Z,1.17
2019-03-13T00:59:04.079Z,0.67
2019-03-13T01:01:42.372Z,1.00
2019-03-13T01:04:15.061Z,1.00
2019-03-13T01:06:45.847Z,0.77
2019-03-13T01:09:13.116Z,1.00
2019-03-13T01:11:40.549Z,1.03
2019-03-13T01:14:08.036Z,1.57
2019-03-13T01:16:35.555Z,1.23
2019-03-13T01:19:02.924Z,0.80
2019-03-13T01:21:30.589Z,0.90
2019-03-13T01:23:57.867Z,0.63
2019-03-13T01:26:25.136Z,0.53
2019-03-13T01:28:52.543Z,0.97
2019-03-13T01:31:51.008Z,0.80
2019-03-13T01:34:40.757Z,0.87
2019-03-13T01:37:08.043Z,1.00
2019-03-13T01:39:35.108Z,1.10
2019-03-13T01:42:02.423Z,0.83
2019-03-13T01:44:29.575Z,2.17
2019-03-13T01:46:56.655Z,0.70
2019-03-13T01:49:24.852Z,1.10
2019-03-13T01:51:52.372Z,1.50
2019-03-13T01:54:20.334Z,0.73
2019-03-13T01:56:47.475Z,0.60
2019-03-13T01:59:14.511Z,1.00
2019-03-13T02:01:41.504Z,0.83
2019-03-13T02:04:10.433Z,0.70
2019-03-13T02:06:37.342Z,0.80
2019-03-13T02:09:06.024Z,0.60
2019-03-13T02:11:33.625Z,1.60
2019-03-13T02:14:00.646Z,0.80
2019-03-13T02:16:27.909Z,1.20
2019-03-13T02:18:55.240Z,0.87
2019-03-13T02:21:22.529Z,1.10
2019-03-13T02:23:49.970Z,1.10
2019-03-13T02:26:17.066Z,1.10
2019-03-13T02:28:44.373Z,0.90
2019-03-13T02:31:12.485Z,3.07
2019-03-13T02:33:40.108Z,2.00
2019-03-13T02:36:07.670Z,2.00
2019-03-13T02:38:34.815Z,1.07
2019-03-13T02:41:02.235Z,1.20
2019-03-13T02:43:29.644Z,1.20
2019-03-13T02:45:56.587Z,1.20
2019-03-13T02:48:24.222Z,1.40
2019-03-13T02:50:51.606Z,1.83
2019-03-13T02:53:18.805Z,1.20
2019-03-13T02:55:45.946Z,1.53
2019-03-13T02:58:13.578Z,1.90
2019-03-13T03:01:12.675Z,1.40
2019-03-13T03:03:43.858Z,1.20
2019-03-13T03:06:11.589Z,1.50
2019-03-13T03:08:38.865Z,3.30
2019-03-13T03:11:06.021Z,1.80
2019-03-13T03:13:33.226Z,1.47
2019-03-13T03:16:01.066Z,1.17
2019-03-13T03:18:28.498Z,1.20
2019-03-13T03:20:55.858Z,0.90
2019-03-13T03:23:23.266Z,2.50
2019-03-13T03:25:50.889Z,1.97
2019-03-13T03:28:18.054Z,1.70
2019-03-13T03:30:45.897Z,1.37
2019-03-13T03:33:12.970Z,2.67
2019-03-13T03:35:40.347Z,2.70
2019-03-13T03:38:07.789Z,2.77
2019-03-13T03:40:35.027Z,1.70
2019-03-13T03:43:02.351Z,1.83
2019-03-13T03:45:29.633Z,1.93
2019-03-13T03:47:57.159Z,2.10
2019-03-13T03:50:24.793Z,2.73
2019-03-13T03:52:52.317Z,4.33
2019-03-13T03:55:19.642Z,3.13
2019-03-13T03:57:47.100Z,2.90
2019-03-13T04:00:14.293Z,3.57
2019-03-13T04:02:42.017Z,5.80
2019-03-13T04:05:10.093Z,3.37
2019-03-13T04:07:37.490Z,4.97
2019-03-13T04:10:05.033Z,4.00
2019-03-13T04:12:32.262Z,4.10
2019-03-13T04:14:59.812Z,4.80
2019-03-13T04:17:26.760Z,4.03
2019-03-13T04:19:53.866Z,3.60
2019-03-13T04:22:21.180Z,3.90
2019-03-13T04:24:48.748Z,3.03
2019-03-13T04:27:16.142Z,3.40
2019-03-13T04:29:43.076Z,2.80
2019-03-13T04:32:10.464Z,3.63
2019-03-13T04:34:37.715Z,3.50
2019-03-13T04:37:04.918Z,5.03
2019-03-13T04:39:32.579Z,9.23
2019-03-13T04:41:59.751Z,6.33
2019-03-13T04:44:26.768Z,5.90
2019-03-13T04:46:54.044Z,3.97
2019-03-13T04:49:21.482Z,3.60
2019-03-13T04:51:48.895Z,4.03
2019-03-13T04:54:16.096Z,4.03
2019-03-13T04:56:43.627Z,3.33
2019-03-13T04:59:10.828Z,3.70
2019-03-13T05:01:38.181Z,3.93
2019-03-13T05:04:07.008Z,3.13
2019-03-13T05:06:34.619Z,3.00
2019-03-13T05:09:07.060Z,4.80
2019-03-13T05:11:35.579Z,4.63
2019-03-13T05:14:02.936Z,3.93
2019-03-13T05:16:29.963Z,4.13
2019-03-13T05:18:56.868Z,4.07
2019-03-13T05:21:23.849Z,4.07
2019-03-13T05:23:50.994Z,3.57
2019-03-13T05:26:18.335Z,2.93
2019-03-13T05:28:45.632Z,6.90
2019-03-13T05:31:12.933Z,4.73
2019-03-13T05:33:40.235Z,4.37
2019-03-13T05:36:07.683Z,4.20
2019-03-13T05:38:34.638Z,3.97
2019-03-13T05:41:01.789Z,2.67
2019-03-13T05:43:29.547Z,5.03
2019-03-13T05:45:56.895Z,5.57
2019-03-13T05:48:24.238Z,4.07
2019-03-13T05:50:51.491Z,3.23
2019-03-13T05:53:18.546Z,2.97
2019-03-13T05:55:45.488Z,6.50
2019-03-13T05:58:12.809Z,3.00
2019-03-13T06:00:40.108Z,5.63
2019-03-13T06:03:08.217Z,2.80
2019-03-13T06:05:35.595Z,4.10
2019-03-13T06:08:03.053Z,4.37
2019-03-13T06:10:30.485Z,2.77
2019-03-13T06:12:57.629Z,5.40
2019-03-13T06:15:25.152Z,5.00
2019-03-13T06:17:52.581Z,2.20
2019-03-13T06:20:19.773Z,6.37
2019-03-13T06:22:46.920Z,3.70
2019-03-13T06:25:14.693Z,5.37
2019-03-13T06:27:42.088Z,2.97
2019-03-13T06:30:10.478Z,3.90
2019-03-13T06:32:37.516Z,4.53
2019-03-13T06:35:04.976Z,4.00
2019-03-13T06:37:32.521Z,5.73
2019-03-13T06:42:57.913Z,6.13
2019-03-13T06:45:25.108Z,5.00
2019-03-13T06:47:52.563Z,3.77
2019-03-13T06:50:19.765Z,2.87
2019-03-13T06:52:47.288Z,3.23
2019-03-13T06:55:14.825Z,3.13
2019-03-13T06:57:42.147Z,6.03
2019-03-13T07:00:37.968Z,4.50
2019-03-13T07:03:27.652Z,2.10
2019-03-13T07:06:08.896Z,6.33
2019-03-13T07:08:47.432Z,3.73
2019-03-13T07:11:43.199Z,6.87
2019-03-13T07:14:18.978Z,6.00
2019-03-13T07:17:13.532Z,6.70
2019-03-13T07:20:03.480Z,5.43
2019-03-13T07:23:02.808Z,5.87
2019-03-13T07:25:36.522Z,4.83
2019-03-13T07:28:10.637Z,6.00
2019-03-13T07:30:58.337Z,5.20
2019-03-13T07:33:43.589Z,4.07
2019-03-13T07:36:28.907Z,5.33
2019-03-13T07:39:15.639Z,4.47
2019-03-13T07:42:01.167Z,5.83
2019-03-13T07:44:46.366Z,4.73
2019-03-13T07:47:23.931Z,6.40
2019-03-13T07:50:14.002Z,3.03
2019-03-13T07:53:09.748Z,7.87
2019-03-13T07:56:05.789Z,2.93
2019-03-13T07:58:55.097Z,3.37
2019-03-13T08:01:33.582Z,7.07
2019-03-13T08:04:26.552Z,6.13
2019-03-13T08:07:25.129Z,3.70
2019-03-13T08:10:10.889Z,3.17
2019-03-13T08:12:54.979Z,3.77
2019-03-13T08:15:41.387Z,7.30
2019-03-13T08:18:16.784Z,8.70
2019-03-13T08:20:56.400Z,5.33
2019-03-13T08:23:35.403Z,3.40
2019-03-13T08:26:22.204Z,4.37
2019-03-13T08:28:55.507Z,4.03
2019-03-13T08:31:30.852Z,4.03
2019-03-13T08:34:15.876Z,5.13
2019-03-13T08:37:02.818Z,6.47
2019-03-13T08:40:01.696Z,3.73
2019-03-13T08:43:01.081Z,6.17
2019-03-13T08:45:36.171Z,4.20
2019-03-13T08:48:31.976Z,5.73
2019-03-13T08:51:12.329Z,6.30
2019-03-13T08:54:01.795Z,6.27
2019-03-13T08:56:33.464Z,3.77
2019-03-13T08:59:08.907Z,3.40
2019-03-13T09:01:43.616Z,5.70
2019-03-13T09:04:29.376Z,3.53
2019-03-13T09:07:16.126Z,4.70
2019-03-13T09:10:00.903Z,5.43
2019-03-13T09:12:46.408Z,4.50
2019-03-13T09:15:22.969Z,3.80
2019-03-13T09:18:08.614Z,3.50
2019-03-13T09:20:56.768Z,4.67
2019-03-13T09:23:34.497Z,5.07
2019-03-13T09:26:24.626Z,6.30
2019-03-13T09:29:09.905Z,3.83
2019-03-13T09:31:45.056Z,5.97
2019-03-13T09:34:20.394Z,5.60
2019-03-13T09:37:03.457Z,6.47
2019-03-13T09:39:48.231Z,3.30
2019-03-13T09:42:24.610Z,5.93
2019-03-13T09:45:02.235Z,4.07
2019-03-13T09:47:49.521Z,4.97
2019-03-13T09:50:27.425Z,6.03
2019-03-13T09:53:04.067Z,4.40
2019-03-13T09:55:54.097Z,3.30
2019-03-13T09:58:41.100Z,5.37
2019-03-13T10:01:17.790Z,3.20
2019-03-13T10:03:54.506Z,2.50
2019-03-13T10:06:31.403Z,5.07
2019-03-13T10:09:07.371Z,5.63
2019-03-13T10:12:02.402Z,4.53
2019-03-13T10:14:36.816Z,3.43
2019-03-13T10:17:12.356Z,5.07
2019-03-13T10:19:47.499Z,7.17
2019-03-13T10:22:24.080Z,4.37
2019-03-13T10:25:10.214Z,6.07
2019-03-13T10:27:43.376Z,4.67
2019-03-13T10:30:24.850Z,3.37
2019-03-13T10:33:01.897Z,6.00
2019-03-13T10:35:57.637Z,7.70
2019-03-13T10:38:53.520Z,4.00
2019-03-13T10:41:27.984Z,4.40
2019-03-13T10:44:12.408Z,6.60
2019-03-13T10:46:46.085Z,3.97
2019-03-13T10:49:28.907Z,5.87
2019-03-13T10:52:18.865Z,5.57
2019-03-13T10:55:03.629Z,6.40
2019-03-13T10:57:56.796Z,5.90
2019-03-13T11:00:49.513Z,6.77
2019-03-13T11:03:26.297Z,4.40
2019-03-13T11:06:08.495Z,4.10
2019-03-13T11:08:55.721Z,6.93
2019-03-13T11:11:32.210Z,3.60
2019-03-13T11:14:15.674Z,5.10
2019-03-13T11:17:01.396Z,5.10
2019-03-13T11:19:59.945Z,3.67
2019-03-13T11:23:01.533Z,5.87
2019-03-13T11:26:00.879Z,5.47
2019-03-13T11:28:56.551Z,5.90
2019-03-13T11:31:48.853Z,4.70
2019-03-13T11:34:44.972Z,3.70
2019-03-13T11:37:29.497Z,3.57
2019-03-13T11:40:18.896Z,2.83
2019-03-13T11:43:07.912Z,11.33
2019-03-13T11:45:48.635Z,10.23
2019-03-13T11:48:50.916Z,3.27
2019-03-13T11:51:39.000Z,3.80
2019-03-13T11:54:27.161Z,6.57
2019-03-13T11:57:12.901Z,6.20
2019-03-13T11:59:57.906Z,6.60
2019-03-13T12:02:44.813Z,9.27
2019-03-13T12:05:41.002Z,8.10
2019-03-13T12:08:40.009Z,4.57
2019-03-13T12:11:14.715Z,6.50
2019-03-13T12:13:59.887Z,5.53
2019-03-13T12:16:50.628Z,6.00
2019-03-13T12:19:25.028Z,6.37
2019-03-13T12:22:23.885Z,6.67
2019-03-13T12:25:00.663Z,6.50
2019-03-13T12:27:52.589Z,6.60
2019-03-13T12:30:37.964Z,8.13
2019-03-13T12:33:12.129Z,5.23
2019-03-13T12:36:02.318Z,7.43
2019-03-13T12:39:04.731Z,6.93
2019-03-13T12:41:51.163Z,7.73
2019-03-13T12:44:27.273Z,11.23
2019-03-13T12:47:03.834Z,8.60
2019-03-13T12:49:49.037Z,6.17
2019-03-13T12:52:38.441Z,7.80
2019-03-13T12:55:15.789Z,5.63
2019-03-13T12:58:11.461Z,7.27
2019-03-13T13:00:57.258Z,6.53
2019-03-13T13:03:42.904Z,6.80
2019-03-13T13:06:24.175Z,5.03
2019-03-13T13:09:09.589Z,5.10
2019-03-13T13:12:04.513Z,5.70
2019-03-13T13:14:41.265Z,5.50
2019-03-13T13:17:31.559Z,6.03
2019-03-13T13:19:58.821Z,4.93
2019-03-13T13:22:25.750Z,4.77
2019-03-13T13:24:52.691Z,5.03
2019-03-13T13:27:20.210Z,4.63
2019-03-13T13:29:47.345Z,4.27
2019-03-13T13:32:14.684Z,4.40
2019-03-13T13:34:42.197Z,2.37
2019-03-13T13:37:10.161Z,3.23
2019-03-13T13:39:37.410Z,4.03
2019-03-13T13:42:05.158Z,6.63
2019-03-13T13:44:32.732Z,3.37
2019-03-13T13:47:00.551Z,4.43
2019-03-13T13:49:27.844Z,5.40
2019-03-13T13:51:56.060Z,5.27
2019-03-13T13:54:23.240Z,3.70
2019-03-13T13:56:50.579Z,3.07
2019-03-13T13:59:17.624Z,4.13
2019-03-13T14:01:45.684Z,6.70
2019-03-13T14:04:13.213Z,3.07
2019-03-13T14:06:40.937Z,5.00
2019-03-13T14:09:08.952Z,5.67
2019-03-13T14:11:39.533Z,5.20
2019-03-13T14:14:07.049Z,4.83
2019-03-13T14:16:34.808Z,4.93
2019-03-13T14:19:02.201Z,6.57
2019-03-13T14:21:29.982Z,4.87
2019-03-13T14:23:57.168Z,4.87
2019-03-13T14:26:24.524Z,6.83
2019-03-13T14:28:51.742Z,7.50
2019-03-13T14:31:19.559Z,5.47
2019-03-13T14:33:47.062Z,6.33
2019-03-13T14:36:14.385Z,4.30
2019-03-13T14:38:42.720Z,4.07
2019-03-13T14:41:10.052Z,3.50
2019-03-13T14:43:37.306Z,5.37
2019-03-13T14:46:04.976Z,5.77
2019-03-13T14:48:32.373Z,5.17
2019-03-13T14:50:59.868Z,8.40
2019-03-13T14:53:27.043Z,5.13
2019-03-13T14:55:55.745Z,5.10
2019-03-13T14:58:22.997Z,4.77
2019-03-13T15:00:50.724Z,7.53
2019-03-13T15:03:17.646Z,4.60
2019-03-13T15:05:45.778Z,4.53
2019-03-13T15:08:12.872Z,10.23
2019-03-13T15:10:40.075Z,5.80
2019-03-13T15:13:07.973Z,8.03
2019-03-13T15:15:35.159Z,4.17
2019-03-13T15:18:02.444Z,7.50
2019-03-13T15:20:29.876Z,10.20
2019-03-13T15:22:57.429Z,6.43
2019-03-13T15:25:25.085Z,6.90
2019-03-13T15:27:52.973Z,7.90
2019-03-13T15:30:20.584Z,8.77
2019-03-13T15:32:48.046Z,5.17
2019-03-13T15:35:15.204Z,9.07
2019-03-13T15:37:42.855Z,6.07
2019-03-13T15:40:12.301Z,5.67
2019-03-13T15:42:39.928Z,4.97
2019-03-13T15:45:08.920Z,4.43
2019-03-13T15:47:37.047Z,8.10
2019-03-13T15:50:04.596Z,6.57
2019-03-13T15:52:32.176Z,6.00
2019-03-13T15:55:00.151Z,8.37
2019-03-13T15:57:28.272Z,7.60
2019-03-13T15:59:55.388Z,7.57
2019-03-13T16:02:23.223Z,6.37
2019-03-13T16:04:50.394Z,7.37
2019-03-13T16:07:17.337Z,6.43
2019-03-13T16:09:45.492Z,7.93
2019-03-13T16:12:13.952Z,8.47
2019-03-13T16:14:40.910Z,7.67
2019-03-13T16:17:08.433Z,7.37
2019-03-13T16:19:35.735Z,29.10
2019-03-13T16:22:03.973Z,8.97
2019-03-13T16:24:30.917Z,11.73
2019-03-13T16:26:58.429Z,7.73
2019-03-13T16:29:25.769Z,12.47
2019-03-13T16:31:52.792Z,6.80
2019-03-13T16:34:20.248Z,7.43
2019-03-13T16:36:47.492Z,7.43
2019-03-13T16:39:15.161Z,5.33
2019-03-13T16:41:42.636Z,7.90
2019-03-13T16:44:09.928Z,5.10
2019-03-13T16:46:38.375Z,5.47
2019-03-13T16:49:06.170Z,7.57
2019-03-13T16:51:33.329Z,6.53
2019-03-13T16:54:00.501Z,8.17
2019-03-13T16:56:28.608Z,4.90
2019-03-13T16:58:56.176Z,6.33
2019-03-13T17:01:23.915Z,4.73
2019-03-13T17:03:51.729Z,5.47
2019-03-13T17:06:19.704Z,7.73
2019-03-13T17:08:47.052Z,8.97
2019-03-13T17:11:14.706Z,5.17
2019-03-13T17:13:41.696Z,5.63
2019-03-13T17:16:08.956Z,8.87
2019-03-13T17:18:36.488Z,6.30
2019-03-13T17:21:04.374Z,6.90
2019-03-13T17:23:32.508Z,3.83
2019-03-13T17:25:59.636Z,5.63
2019-03-13T17:28:26.821Z,5.70
2019-03-13T17:30:54.355Z,5.33
2019-03-13T17:33:22.018Z,3.33
2019-03-13T17:35:49.351Z,4.07
2019-03-13T17:38:17.013Z,4.77
2019-03-13T17:40:45.180Z,4.27
2019-03-13T17:43:12.211Z,6.27
2019-03-13T17:45:40.758Z,5.73
2019-03-13T17:48:08.038Z,8.70
2019-03-13T17:50:35.504Z,6.97
2019-03-13T17:53:02.878Z,5.23
2019-03-13T17:55:30.036Z,5.00
2019-03-13T17:57:57.588Z,5.47
2019-03-13T18:00:28.763Z,3.70
2019-03-13T18:02:56.397Z,6.13
2019-03-13T18:05:24.744Z,5.33
2019-03-13T18:07:52.368Z,5.73
2019-03-13T18:10:19.584Z,4.17
2019-03-13T18:12:46.736Z,5.23
2019-03-13T18:15:14.283Z,7.67
2019-03-13T18:17:41.338Z,6.60
2019-03-13T18:20:10.797Z,5.63
2019-03-13T18:22:38.148Z,5.13
2019-03-13T18:25:05.610Z,4.20
2019-03-13T18:27:32.868Z,5.27
2019-03-13T18:30:00.397Z,4.60
2019-03-13T18:32:27.846Z,5.70
2019-03-13T18:34:55.433Z,6.20
2019-03-13T18:37:22.748Z,5.97
2019-03-13T18:39:50.652Z,5.63
2019-03-13T18:42:18.363Z,8.03
2019-03-13T18:44:45.959Z,7.77
2019-03-13T18:47:13.653Z,4.90
2019-03-13T18:49:41.088Z,4.50
2019-03-13T18:52:08.899Z,5.20
2019-03-13T18:54:36.512Z,6.73
2019-03-13T18:57:03.871Z,8.93
2019-03-13T18:59:31.527Z,9.20
2019-03-13T19:01:58.809Z,7.27
2019-03-13T19:04:26.005Z,4.70
2019-03-13T19:06:53.588Z,5.40
2019-03-13T19:09:20.999Z,5.77
2019-03-13T19:11:48.600Z,7.13
2019-03-13T19:14:15.836Z,4.20
2019-03-13T19:16:43.351Z,4.93
2019-03-13T19:19:10.812Z,4.37
2019-03-13T19:21:38.269Z,5.20
2019-03-13T19:24:05.908Z,3.83
2019-03-13T19:26:33.678Z,5.53
2019-03-13T19:29:01.789Z,4.07
2019-03-13T19:31:29.692Z,4.27
2019-03-13T19:33:57.124Z,4.80
2019-03-13T19:36:24.154Z,4.23
2019-03-13T19:38:52.156Z,4.93
2019-03-13T19:41:19.303Z,4.90
2019-03-13T19:43:46.717Z,2.63
2019-03-13T19:46:14.461Z,3.97
2019-03-13T19:48:41.868Z,2.27
2019-03-13T19:51:08.973Z,2.73
2019-03-13T19:53:36.405Z,2.47
2019-03-13T19:56:03.785Z,3.00
2019-03-13T19:58:31.475Z,2.53
2019-03-13T20:00:59.549Z,2.53
2019-03-13T20:03:26.971Z,14.70
2019-03-13T20:05:54.789Z,2.80
2019-03-13T20:08:22.723Z,3.17
2019-03-13T20:10:50.150Z,3.50
2019-03-13T20:13:17.789Z,3.03
2019-03-13T20:15:45.214Z,3.53
2019-03-13T20:18:13.250Z,2.37
2019-03-13T20:20:41.077Z,1.67
2019-03-13T20:23:08.520Z,1.80
2019-03-13T20:25:35.890Z,1.97
2019-03-13T20:28:03.967Z,2.63
2019-03-13T20:30:31.388Z,2.23
2019-03-13T20:33:00.170Z,1.20
2019-03-13T20:35:28.088Z,1.00
2019-03-13T20:37:55.502Z,1.30
2019-03-13T20:40:22.963Z,1.30
2019-03-13T20:42:50.484Z,1.50
2019-03-13T20:45:19.786Z,1.60
2019-03-13T20:47:47.727Z,1.60
2019-03-13T20:50:15.596Z,2.57
2019-03-13T20:52:45.756Z,4.27
2019-03-13T20:55:13.353Z,2.40
2019-03-13T20:57:40.576Z,3.30
2019-03-13T21:00:10.256Z,1.97
2019-03-13T21:02:38.104Z,1.20
2019-03-13T21:05:05.556Z,1.27
2019-03-13T21:07:33.342Z,1.23
2019-03-13T21:10:01.104Z,1.57
2019-03-13T21:12:29.584Z,1.50
2019-03-13T21:14:57.483Z,5.83
2019-03-13T21:17:24.846Z,3.33
2019-03-13T21:19:52.306Z,1.47
2019-03-13T21:22:20.313Z,2.13
2019-03-13T21:24:47.269Z,2.03
2019-03-13T21:27:14.699Z,2.60
2019-03-13T21:29:42.447Z,3.00
2019-03-13T21:32:09.621Z,2.07
2019-03-13T21:34:37.226Z,2.20
2019-03-13T21:37:04.934Z,2.20
2019-03-13T21:39:32.707Z,3.80
2019-03-13T21:42:00.467Z,3.03
2019-03-13T21:44:28.509Z,4.83
2019-03-13T21:46:55.985Z,4.57
2019-03-13T21:49:24.285Z,3.87
2019-03-13T21:51:51.484Z,4.43
2019-03-13T21:54:18.749Z,5.83
2019-03-13T21:56:45.905Z,4.57
2019-03-13T22:01:45.580Z,4.57
2019-03-13T22:04:23.669Z,3.20
2019-03-13T22:06:41.873Z,4.53
2019-03-13T22:09:09.463Z,4.17
2019-03-13T22:11:36.936Z,2.70
2019-03-13T22:14:04.069Z,3.33
2019-03-13T22:16:32.705Z,5.27
2019-03-13T22:19:00.211Z,2.87
2019-03-13T22:21:27.571Z,5.00
2019-03-13T22:23:55.770Z,3.47
2019-03-13T22:26:23.092Z,5.00
2019-03-13T22:28:50.549Z,3.43
2019-03-13T22:31:17.548Z,3.90
2019-03-13T22:33:45.386Z,3.73
2019-03-13T22:36:12.440Z,4.63
2019-03-13T22:38:39.968Z,4.20
2019-03-13T22:41:08.771Z,3.33
2019-03-13T22:43:36.109Z,2.63
2019-03-13T22:46:03.401Z,4.60
2019-03-13T22:48:31.051Z,3.27
2019-03-13T22:51:23.048Z,4.80
2019-03-13T22:53:50.423Z,4.63
2019-03-13T22:56:17.677Z,4.23
2019-03-13T22:58:45.754Z,4.33
2019-03-13T23:01:15.728Z,2.70
2019-03-13T23:03:45.292Z,4.23
2019-03-13T23:06:13.134Z,3.57
2019-03-13T23:08:40.309Z,4.33
2019-03-13T23:11:07.475Z,4.57
2019-03-13T23:13:35.194Z,5.63
2019-03-13T23:16:02.391Z,5.80
2019-03-13T23:18:29.538Z,3.03
2019-03-13T23:20:57.485Z,6.67
2019-03-13T23:23:24.748Z,3.37
2019-03-13T23:25:52.809Z,6.87
2019-03-13T23:28:20.346Z,4.73
2019-03-13T23:30:47.633Z,5.33
2019-03-13T23:33:15.000Z,5.53
2019-03-13T23:35:42.462Z,5.43
2019-03-13T23:38:10.622Z,3.93
2019-03-13T23:40:37.896Z,5.47
2019-03-13T23:43:05.256Z,5.23
2019-03-13T23:45:32.416Z,5.90
2019-03-13T23:47:59.709Z,6.00
2019-03-13T23:50:26.968Z,6.57
2019-03-13T23:52:54.872Z,7.40
2019-03-13T23:55:22.158Z,5.50
2019-03-13T23:57:49.637Z,6.40
